sensor_id;sensor_type;location;lat;lon;timestamp;pressure;altitude;pressure_sealevel;temperature;humidity
20003;BME280;10162;41.600;23.806;2023-03-01T00:29:25;95575.44;;;6.72;100.00
20003;BME280;10162;41.600;23.806;2023-03-01T00:32:08;95560.25;;;6.51;100.00
20003;BME280;10162;41.600;23.806;2023-03-01T00:34:35;95599.97;;;7.01;100.00
20003;BME280;10162;41.600;23.806;2023-03-01T00:37:01;95595.75;;;6.92;100.00
20003;BME280;10162;41.600;23.806;2023-03-01T00:39:32;95584.19;;;6.79;100.00
20003;BME280;10162;41.600;23.806;2023-03-01T00:41:59;95552.28;;;6.44;100.00
20003;BME280;10162;41.600;23.806;2023-03-01T00:44:26;95538.50;;;6.44;100.00
20003;BME280;10162;41.600;23.806;2023-03-01T00:46:53;95570.97;;;6.48;100.00
20003;BME280;10162;41.600;23.806;2023-03-01T00:53:05;95567.75;;;6.62;100.00
20003;BME280;10162;41.600;23.806;2023-03-01T00:55:32;95551.84;;;6.49;100.00
20003;BME280;10162;41.600;23.806;2023-03-01T00:57:58;95565.81;;;6.72;100.00
20003;BME280;10162;41.600;23.806;2023-03-01T01:00:24;95579.97;;;6.78;100.00
20003;BME280;10162;41.600;23.806;2023-03-01T01:03:46;95582.59;;;6.78;100.00
20003;BME280;10162;41.600;23.806;2023-03-01T01:06:18;95578.50;;;6.75;100.00
20003;BME280;10162;41.600;23.806;2023-03-01T01:12:31;95566.97;;;6.86;100.00
20003;BME280;10162;41.600;23.806;2023-03-01T01:14:57;95555.94;;;6.76;100.00
20003;BME280;10162;41.600;23.806;2023-03-01T01:17:23;95569.09;;;6.98;100.00
20003;BME280;10162;41.600;23.806;2023-03-01T01:38:45;95538.38;;;6.70;100.00
20003;BME280;10162;41.600;23.806;2023-03-01T01:41:13;95541.13;;;6.68;100.00
20003;BME280;10162;41.600;23.806;2023-03-01T01:43:46;95539.50;;;6.67;100.00
20003;BME280;10162;41.600;23.806;2023-03-01T01:49:37;95526.34;;;6.52;100.00
20003;BME280;10162;41.600;23.806;2023-03-01T01:54:42;95539.84;;;6.64;100.00
20003;BME280;10162;41.600;23.806;2023-03-01T01:57:23;95529.44;;;6.56;100.00
20003;BME280;10162;41.600;23.806;2023-03-01T01:59:54;95517.75;;;6.52;100.00
20003;BME280;10162;41.600;23.806;2023-03-01T02:02:24;95509.47;;;6.56;100.00
20003;BME280;10162;41.600;23.806;2023-03-01T02:04:56;95504.91;;;6.50;100.00
20003;BME280;10162;41.600;23.806;2023-03-01T02:07:27;95529.63;;;6.79;100.00
20003;BME280;10162;41.600;23.806;2023-03-01T02:09:53;95522.81;;;6.86;100.00
20003;BME280;10162;41.600;23.806;2023-03-01T02:12:29;95515.00;;;6.86;100.00
20003;BME280;10162;41.600;23.806;2023-03-01T02:14:56;95472.28;;;6.80;100.00
20003;BME280;10162;41.600;23.806;2023-03-01T02:17:42;95508.81;;;6.95;100.00
20003;BME280;10162;41.600;23.806;2023-03-01T02:44:14;95470.19;;;6.59;100.00
20003;BME280;10162;41.600;23.806;2023-03-01T02:46:49;95509.47;;;6.56;100.00
20003;BME280;10162;41.600;23.806;2023-03-01T02:49:21;95469.88;;;6.54;100.00
20003;BME280;10162;41.600;23.806;2023-03-01T02:55:05;95452.13;;;6.26;100.00
20003;BME280;10162;41.600;23.806;2023-03-01T02:57:37;95477.00;;;6.52;100.00
20003;BME280;10162;41.600;23.806;2023-03-01T03:00:11;95464.81;;;6.45;100.00
20003;BME280;10162;41.600;23.806;2023-03-01T03:03:01;95442.22;;;6.13;100.00
20003;BME280;10162;41.600;23.806;2023-03-01T03:05:34;95447.41;;;6.13;100.00
20003;BME280;10162;41.600;23.806;2023-03-01T03:08:02;95445.16;;;6.18;100.00
20003;BME280;10162;41.600;23.806;2023-03-01T03:10:34;95440.28;;;6.23;100.00
20003;BME280;10162;41.600;23.806;2023-03-01T03:17:29;95475.56;;;6.66;100.00
20003;BME280;10162;41.600;23.806;2023-03-01T03:20:48;95480.06;;;6.40;100.00
20003;BME280;10162;41.600;23.806;2023-03-01T03:23:28;95454.72;;;6.34;100.00
20003;BME280;10162;41.600;23.806;2023-03-01T03:25:57;95457.19;;;6.35;100.00
20003;BME280;10162;41.600;23.806;2023-03-01T03:28:39;95436.06;;;6.38;100.00
20003;BME280;10162;41.600;23.806;2023-03-01T03:31:07;95454.09;;;6.32;100.00
20003;BME280;10162;41.600;23.806;2023-03-01T03:33:33;95430.69;;;6.07;100.00
20003;BME280;10162;41.600;23.806;2023-03-01T03:36:01;95448.88;;;6.23;100.00
20003;BME280;10162;41.600;23.806;2023-03-01T03:38:26;95446.47;;;6.30;100.00
20003;BME280;10162;41.600;23.806;2023-03-01T03:45:05;95463.66;;;6.31;100.00
20003;BME280;10162;41.600;23.806;2023-03-01T03:47:33;95453.75;;;6.18;100.00
20003;BME280;10162;41.600;23.806;2023-03-01T03:50:02;95436.41;;;6.35;100.00
20003;BME280;10162;41.600;23.806;2023-03-01T03:56:03;95450.19;;;6.19;100.00
20003;BME280;10162;41.600;23.806;2023-03-01T03:58:33;95466.44;;;6.38;100.00
20003;BME280;10162;41.600;23.806;2023-03-01T04:21:09;95477.97;;;6.92;100.00
20003;BME280;10162;41.600;23.806;2023-03-01T04:45:50;95481.03;;;6.95;100.00
20003;BME280;10162;41.600;23.806;2023-03-01T04:48:52;95477.66;;;6.79;100.00
20003;BME280;10162;41.600;23.806;2023-03-01T05:45:39;95454.75;;;6.82;100.00
20003;BME280;10162;41.600;23.806;2023-03-01T06:23:52;95522.19;;;7.79;100.00
20003;BME280;10162;41.600;23.806;2023-03-01T06:26:19;95498.69;;;7.48;100.00
20003;BME280;10162;41.600;23.806;2023-03-01T06:28:45;95505.63;;;7.72;100.00
20003;BME280;10162;41.600;23.806;2023-03-01T06:31:12;95520.81;;;8.00;100.00
20003;BME280;10162;41.600;23.806;2023-03-01T06:33:38;95501.47;;;7.94;100.00
20003;BME280;10162;41.600;23.806;2023-03-01T06:36:04;95519.44;;;8.12;100.00
20003;BME280;10162;41.600;23.806;2023-03-01T06:38:30;95509.56;;;8.07;100.00
20003;BME280;10162;41.600;23.806;2023-03-01T06:40:58;95510.38;;;8.08;100.00
20003;BME280;10162;41.600;23.806;2023-03-01T06:43:24;95518.31;;;8.14;100.00
20003;BME280;10162;41.600;23.806;2023-03-01T06:45:50;95503.03;;;8.03;100.00
20003;BME280;10162;41.600;23.806;2023-03-01T06:48:16;95527.63;;;8.01;100.00
20003;BME280;10162;41.600;23.806;2023-03-01T06:50:42;95533.13;;;8.14;100.00
20003;BME280;10162;41.600;23.806;2023-03-01T06:53:08;95491.88;;;7.95;100.00
20003;BME280;10162;41.600;23.806;2023-03-01T06:55:36;95520.56;;;8.17;100.00
20003;BME280;10162;41.600;23.806;2023-03-01T06:58:02;95522.28;;;8.02;100.00
20003;BME280;10162;41.600;23.806;2023-03-01T07:00:29;95501.59;;;8.01;100.00
20003;BME280;10162;41.600;23.806;2023-03-01T07:03:01;95534.91;;;8.13;100.00
20003;BME280;10162;41.600;23.806;2023-03-01T07:05:28;95511.22;;;8.00;100.00
20003;BME280;10162;41.600;23.806;2023-03-01T07:07:54;95501.97;;;7.89;100.00
20003;BME280;10162;41.600;23.806;2023-03-01T07:10:21;95524.06;;;8.02;100.00
20003;BME280;10162;41.600;23.806;2023-03-01T07:12:46;95520.28;;;8.12;100.00
20003;BME280;10162;41.600;23.806;2023-03-01T07:15:12;95496.53;;;8.07;100.00
20003;BME280;10162;41.600;23.806;2023-03-01T07:17:40;95471.03;;;7.95;100.00
20003;BME280;10162;41.600;23.806;2023-03-01T07:20:06;95506.81;;;8.01;100.00
20003;BME280;10162;41.600;23.806;2023-03-01T07:22:32;95520.78;;;8.08;100.00
20003;BME280;10162;41.600;23.806;2023-03-01T07:24:58;95494.84;;;7.83;100.00
20003;BME280;10162;41.600;23.806;2023-03-01T07:27:24;95498.47;;;8.05;100.00
20003;BME280;10162;41.600;23.806;2023-03-01T07:29:50;95521.69;;;8.23;100.00
20003;BME280;10162;41.600;23.806;2023-03-01T07:32:25;95536.63;;;8.29;100.00
20003;BME280;10162;41.600;23.806;2023-03-01T07:34:52;95495.34;;;8.18;100.00
20003;BME280;10162;41.600;23.806;2023-03-01T07:37:18;95514.47;;;8.41;100.00
20003;BME280;10162;41.600;23.806;2023-03-01T07:39:47;95533.16;;;8.45;100.00
20003;BME280;10162;41.600;23.806;2023-03-01T07:42:23;95519.91;;;8.54;100.00
20003;BME280;10162;41.600;23.806;2023-03-01T07:44:50;95506.50;;;8.26;100.00
20003;BME280;10162;41.600;23.806;2023-03-01T07:47:16;95526.41;;;8.58;100.00
20003;BME280;10162;41.600;23.806;2023-03-01T07:49:43;95521.19;;;8.58;100.00
20003;BME280;10162;41.600;23.806;2023-03-01T07:52:24;95508.88;;;8.44;100.00
20003;BME280;10162;41.600;23.806;2023-03-01T07:54:49;95528.91;;;8.44;100.00
20003;BME280;10162;41.600;23.806;2023-03-01T07:57:16;95502.53;;;8.47;100.00
20003;BME280;10162;41.600;23.806;2023-03-01T07:59:41;95530.16;;;8.79;100.00
20003;BME280;10162;41.600;23.806;2023-03-01T08:02:19;95490.91;;;8.57;100.00
20003;BME280;10162;41.600;23.806;2023-03-01T08:04:53;95518.13;;;8.78;100.00
20003;BME280;10162;41.600;23.806;2023-03-01T08:07:50;95504.88;;;8.64;100.00
20003;BME280;10162;41.600;23.806;2023-03-01T08:10:18;95495.00;;;8.52;100.00
20003;BME280;10162;41.600;23.806;2023-03-01T08:12:47;95510.81;;;8.50;100.00
20003;BME280;10162;41.600;23.806;2023-03-01T08:15:14;95516.91;;;8.65;100.00
20003;BME280;10162;41.600;23.806;2023-03-01T08:17:40;95514.25;;;8.74;100.00
20003;BME280;10162;41.600;23.806;2023-03-01T08:20:07;95484.06;;;8.56;100.00
20003;BME280;10162;41.600;23.806;2023-03-01T08:22:43;95514.00;;;8.83;100.00
20003;BME280;10162;41.600;23.806;2023-03-01T08:25:24;95520.22;;;8.82;100.00
20003;BME280;10162;41.600;23.806;2023-03-01T08:27:53;95513.22;;;8.83;100.00
20003;BME280;10162;41.600;23.806;2023-03-01T08:30:20;95491.88;;;8.79;100.00
20003;BME280;10162;41.600;23.806;2023-03-01T08:32:50;95489.63;;;8.76;100.00
20003;BME280;10162;41.600;23.806;2023-03-01T08:35:17;95501.63;;;8.62;100.00
20003;BME280;10162;41.600;23.806;2023-03-01T08:37:43;95473.19;;;8.53;100.00
20003;BME280;10162;41.600;23.806;2023-03-01T09:46:57;95412.03;;;9.30;100.00
20003;BME280;10162;41.600;23.806;2023-03-01T10:15:34;95464.06;;;10.26;100.00
20003;BME280;10162;41.600;23.806;2023-03-01T10:44:57;95430.69;;;10.43;100.00
20003;BME280;10162;41.600;23.806;2023-03-01T10:56:21;95435.63;;;10.53;100.00
20003;BME280;10162;41.600;23.806;2023-03-01T11:10:11;95402.28;;;10.83;99.83
20003;BME280;10162;41.600;23.806;2023-03-01T11:12:47;95405.00;;;10.96;98.58
20003;BME280;10162;41.600;23.806;2023-03-01T11:15:21;95395.50;;;10.67;98.20
20003;BME280;10162;41.600;23.806;2023-03-01T11:17:51;95371.03;;;10.74;96.95
20003;BME280;10162;41.600;23.806;2023-03-01T11:20:27;95399.34;;;10.92;97.75
20003;BME280;10162;41.600;23.806;2023-03-01T11:26:23;95386.63;;;10.61;98.73
20003;BME280;10162;41.600;23.806;2023-03-01T11:28:58;95374.88;;;10.51;98.79
20003;BME280;10162;41.600;23.806;2023-03-01T11:35:32;95371.84;;;10.75;100.00
20003;BME280;10162;41.600;23.806;2023-03-01T11:40:57;95382.69;;;10.72;100.00
20003;BME280;10162;41.600;23.806;2023-03-01T11:50:47;95360.34;;;10.97;100.00
20003;BME280;10162;41.600;23.806;2023-03-01T11:59:51;95362.66;;;11.48;100.00
20003;BME280;10162;41.600;23.806;2023-03-01T12:18:24;95323.69;;;11.73;98.27
20003;BME280;10162;41.600;23.806;2023-03-01T12:20:58;95346.34;;;12.00;97.98
20003;BME280;10162;41.600;23.806;2023-03-01T12:23:32;95343.75;;;12.07;94.90
20003;BME280;10162;41.600;23.806;2023-03-01T12:26:13;95340.16;;;12.27;95.60
20003;BME280;10162;41.600;23.806;2023-03-01T12:29:23;95346.38;;;12.07;93.43
20003;BME280;10162;41.600;23.806;2023-03-01T12:37:56;95322.19;;;12.05;89.76
20003;BME280;10162;41.600;23.806;2023-03-01T12:43:16;95329.09;;;12.52;89.36
20003;BME280;10162;41.600;23.806;2023-03-01T12:46:15;95324.41;;;12.14;87.83
20003;BME280;10162;41.600;23.806;2023-03-01T12:51:47;95301.16;;;11.91;89.02
20003;BME280;10162;41.600;23.806;2023-03-01T12:54:27;95308.88;;;12.19;89.37
20003;BME280;10162;41.600;23.806;2023-03-01T12:57:08;95303.44;;;12.01;89.77
20003;BME280;10162;41.600;23.806;2023-03-01T12:59:42;95334.53;;;12.50;88.54
20003;BME280;10162;41.600;23.806;2023-03-01T13:05:07;95340.34;;;12.13;89.75
20003;BME280;10162;41.600;23.806;2023-03-01T13:07:52;95323.19;;;12.04;90.76
20003;BME280;10162;41.600;23.806;2023-03-01T13:13:01;95330.09;;;12.24;90.25
20003;BME280;10162;41.600;23.806;2023-03-01T13:15:32;95331.91;;;12.24;91.57
20003;BME280;10162;41.600;23.806;2023-03-01T13:18:01;95323.38;;;11.95;91.34
20003;BME280;10162;41.600;23.806;2023-03-01T13:23:31;95301.16;;;11.78;92.86
20003;BME280;10162;41.600;23.806;2023-03-01T13:33:55;95299.69;;;11.69;92.64
20003;BME280;10162;41.600;23.806;2023-03-01T13:39:01;95312.66;;;11.84;93.81
20003;BME280;10162;41.600;23.806;2023-03-01T13:46:53;95296.34;;;11.88;94.24
20003;BME280;10162;41.600;23.806;2023-03-01T13:49:23;95322.63;;;12.34;94.80
20003;BME280;10162;41.600;23.806;2023-03-01T13:51:54;95286.44;;;11.77;93.45
20003;BME280;10162;41.600;23.806;2023-03-01T13:54:30;95288.47;;;11.88;93.59
20003;BME280;10162;41.600;23.806;2023-03-01T13:57:01;95293.75;;;12.08;92.70
20003;BME280;10162;41.600;23.806;2023-03-01T13:59:29;95310.09;;;12.10;93.01
20003;BME280;10162;41.600;23.806;2023-03-01T14:01:58;95328.47;;;12.30;92.77
20003;BME280;10162;41.600;23.806;2023-03-01T14:04:29;95320.59;;;12.17;93.62
20003;BME280;10162;41.600;23.806;2023-03-01T14:07:21;95321.56;;;12.09;94.34
20003;BME280;10162;41.600;23.806;2023-03-01T14:10:00;95294.13;;;11.98;96.50
20003;BME280;10162;41.600;23.806;2023-03-01T14:12:44;95313.09;;;12.14;96.59
20003;BME280;10162;41.600;23.806;2023-03-01T14:15:35;95311.13;;;12.22;97.65
20003;BME280;10162;41.600;23.806;2023-03-01T14:20:42;95315.13;;;12.05;94.81
20003;BME280;10162;41.600;23.806;2023-03-01T14:26:20;95304.22;;;11.95;96.45
20003;BME280;10162;41.600;23.806;2023-03-01T14:28:50;95291.13;;;12.08;95.84
20003;BME280;10162;41.600;23.806;2023-03-01T14:31:38;95302.03;;;12.05;95.37
20003;BME280;10162;41.600;23.806;2023-03-01T14:34:19;95303.09;;;11.63;97.17
20003;BME280;10162;41.600;23.806;2023-03-01T14:36:46;95299.69;;;11.69;96.83
20003;BME280;10162;41.600;23.806;2023-03-01T14:39:24;95297.13;;;11.76;96.65
20003;BME280;10162;41.600;23.806;2023-03-01T14:41:51;95291.72;;;11.84;97.50
20003;BME280;10162;41.600;23.806;2023-03-01T14:44:22;95288.63;;;11.74;96.23
20003;BME280;10162;41.600;23.806;2023-03-01T14:46:54;95294.44;;;11.69;97.67
20003;BME280;10162;41.600;23.806;2023-03-01T14:49:24;95300.50;;;11.70;99.07
20003;BME280;10162;41.600;23.806;2023-03-01T14:54:44;95301.25;;;11.50;100.00
20003;BME280;10162;41.600;23.806;2023-03-01T14:57:21;95309.09;;;11.57;100.00
20003;BME280;10162;41.600;23.806;2023-03-01T14:59:51;95291.53;;;11.38;100.00
20003;BME280;10162;41.600;23.806;2023-03-01T15:02:23;95284.22;;;11.27;100.00
20003;BME280;10162;41.600;23.806;2023-03-01T15:04:52;95312.25;;;11.39;100.00
20003;BME280;10162;41.600;23.806;2023-03-01T15:07:20;95317.66;;;11.31;100.00
20003;BME280;10162;41.600;23.806;2023-03-01T15:12:37;95292.91;;;10.93;100.00
20003;BME280;10162;41.600;23.806;2023-03-01T15:15:34;95300.25;;;11.10;100.00
20003;BME280;10162;41.600;23.806;2023-03-01T15:18:03;95290.53;;;10.98;100.00
20003;BME280;10162;41.600;23.806;2023-03-01T15:20:55;95296.56;;;10.98;100.00
20003;BME280;10162;41.600;23.806;2023-03-01T15:23:28;95292.66;;;10.81;100.00
20003;BME280;10162;41.600;23.806;2023-03-01T15:25:56;95273.66;;;10.72;100.00
20003;BME280;10162;41.600;23.806;2023-03-01T15:28:28;95301.72;;;10.85;100.00
20003;BME280;10162;41.600;23.806;2023-03-01T15:31:02;95293.97;;;10.70;100.00
20003;BME280;10162;41.600;23.806;2023-03-01T15:33:33;95293.78;;;10.72;100.00
20003;BME280;10162;41.600;23.806;2023-03-01T15:36:29;95303.94;;;10.60;100.00
20003;BME280;10162;41.600;23.806;2023-03-01T15:41:57;95295.78;;;10.42;100.00
20003;BME280;10162;41.600;23.806;2023-03-01T15:44:27;95304.72;;;10.54;100.00
20003;BME280;10162;41.600;23.806;2023-03-01T15:46:54;95291.84;;;10.31;100.00
20003;BME280;10162;41.600;23.806;2023-03-01T15:51:56;95291.94;;;10.17;100.00
20003;BME280;10162;41.600;23.806;2023-03-01T15:54:25;95327.03;;;10.29;100.00
20003;BME280;10162;41.600;23.806;2023-03-01T15:56:52;95295.66;;;10.08;100.00
20003;BME280;10162;41.600;23.806;2023-03-01T15:59:28;95304.09;;;10.10;100.00
20003;BME280;10162;41.600;23.806;2023-03-01T16:01:54;95306.66;;;10.03;100.00
20003;BME280;10162;41.600;23.806;2023-03-01T16:04:19;95320.41;;;10.12;100.00
20003;BME280;10162;41.600;23.806;2023-03-01T16:06:50;95304.78;;;9.97;100.00
20003;BME280;10162;41.600;23.806;2023-03-01T16:09:26;95333.25;;;9.92;100.00
20003;BME280;10162;41.600;23.806;2023-03-01T16:11:53;95325.50;;;9.99;100.00
20003;BME280;10162;41.600;23.806;2023-03-01T16:14:19;95315.47;;;9.81;100.00
20003;BME280;10162;41.600;23.806;2023-03-01T16:16:47;95315.53;;;9.87;100.00
20003;BME280;10162;41.600;23.806;2023-03-01T16:19:14;95303.22;;;9.81;100.00
20003;BME280;10162;41.600;23.806;2023-03-01T16:21:41;95299.94;;;9.73;100.00
20003;BME280;10162;41.600;23.806;2023-03-01T16:24:49;95326.47;;;9.76;100.00
20003;BME280;10162;41.600;23.806;2023-03-01T16:27:15;95337.16;;;9.81;100.00
20003;BME280;10162;41.600;23.806;2023-03-01T16:29:48;95325.50;;;9.63;100.00
20003;BME280;10162;41.600;23.806;2023-03-01T16:32:13;95332.81;;;9.67;100.00
20003;BME280;10162;41.600;23.806;2023-03-01T16:34:39;95337.81;;;9.69;100.00
20003;BME280;10162;41.600;23.806;2023-03-01T16:37:06;95315.28;;;9.61;100.00
20003;BME280;10162;41.600;23.806;2023-03-01T16:39:32;95342.53;;;9.73;100.00
20003;BME280;10162;41.600;23.806;2023-03-01T16:42:00;95336.97;;;9.62;100.00
20003;BME280;10162;41.600;23.806;2023-03-01T16:44:26;95320.41;;;9.54;100.00
20003;BME280;10162;41.600;23.806;2023-03-01T16:46:52;95319.91;;;9.30;100.00
20003;BME280;10162;41.600;23.806;2023-03-01T16:49:19;95313.19;;;9.21;100.00
20003;BME280;10162;41.600;23.806;2023-03-01T16:51:45;95308.50;;;9.16;100.00
20003;BME280;10162;41.600;23.806;2023-03-01T16:54:10;95318.91;;;9.31;100.00
20003;BME280;10162;41.600;23.806;2023-03-01T16:56:41;95339.72;;;9.39;100.00
20003;BME280;10162;41.600;23.806;2023-03-01T16:59:27;95338.28;;;9.22;100.00
20003;BME280;10162;41.600;23.806;2023-03-01T17:01:53;95318.56;;;8.90;100.00
20003;BME280;10162;41.600;23.806;2023-03-01T17:04:19;95324.63;;;9.05;100.00
20003;BME280;10162;41.600;23.806;2023-03-01T17:06:46;95318.84;;;9.09;100.00
20003;BME280;10162;41.600;23.806;2023-03-01T17:09:16;95312.75;;;9.02;100.00
20003;BME280;10162;41.600;23.806;2023-03-01T17:11:44;95336.03;;;9.19;100.00
20003;BME280;10162;41.600;23.806;2023-03-01T17:14:10;95312.81;;;9.09;100.00
20003;BME280;10162;41.600;23.806;2023-03-01T17:16:37;95335.94;;;9.27;100.00
20003;BME280;10162;41.600;23.806;2023-03-01T17:19:06;95309.66;;;9.13;100.00
20003;BME280;10162;41.600;23.806;2023-03-01T17:21:32;95319.47;;;9.26;100.00
20003;BME280;10162;41.600;23.806;2023-03-01T17:24:02;95313.63;;;9.24;100.00
20003;BME280;10162;41.600;23.806;2023-03-01T17:26:28;95327.84;;;9.22;100.00
20003;BME280;10162;41.600;23.806;2023-03-01T17:28:56;95322.97;;;9.33;100.00
20003;BME280;10162;41.600;23.806;2023-03-01T17:31:25;95339.03;;;9.51;100.00
20003;BME280;10162;41.600;23.806;2023-03-01T17:33:51;95347.88;;;9.36;100.00
20003;BME280;10162;41.600;23.806;2023-03-01T17:36:39;95350.31;;;9.37;100.00
20003;BME280;10162;41.600;23.806;2023-03-01T17:39:32;95357.03;;;9.46;100.00
20003;BME280;10162;41.600;23.806;2023-03-01T17:42:01;95336.72;;;9.42;100.00
20003;BME280;10162;41.600;23.806;2023-03-01T17:44:29;95344.84;;;9.32;100.00
20003;BME280;10162;41.600;23.806;2023-03-01T17:46:57;95349.59;;;9.29;100.00
20003;BME280;10162;41.600;23.806;2023-03-01T17:53:17;95356.00;;;9.26;100.00
20003;BME280;10162;41.600;23.806;2023-03-01T17:55:44;95332.34;;;9.13;100.00
20003;BME280;10162;41.600;23.806;2023-03-01T17:58:12;95319.19;;;9.06;100.00
20003;BME280;10162;41.600;23.806;2023-03-01T18:00:39;95346.00;;;9.30;100.00
20003;BME280;10162;41.600;23.806;2023-03-01T18:03:05;95371.28;;;9.44;100.00
20003;BME280;10162;41.600;23.806;2023-03-01T18:05:37;95309.31;;;9.02;100.00
20003;BME280;10162;41.600;23.806;2023-03-01T18:08:05;95355.34;;;9.24;100.00
20003;BME280;10162;41.600;23.806;2023-03-01T18:16:35;95361.94;;;9.20;100.00
20003;BME280;10162;41.600;23.806;2023-03-01T18:19:11;95335.13;;;9.11;100.00
20003;BME280;10162;41.600;23.806;2023-03-01T18:21:38;95334.94;;;8.98;100.00
20003;BME280;10162;41.600;23.806;2023-03-01T18:24:04;95355.19;;;9.11;100.00
20003;BME280;10162;41.600;23.806;2023-03-01T18:26:30;95360.03;;;9.14;100.00
20003;BME280;10162;41.600;23.806;2023-03-01T18:32:04;95367.94;;;9.35;100.00
20003;BME280;10162;41.600;23.806;2023-03-01T18:34:30;95382.50;;;9.59;100.00
20003;BME280;10162;41.600;23.806;2023-03-01T18:36:56;95368.09;;;9.63;100.00
20003;BME280;10162;41.600;23.806;2023-03-01T18:42:29;95370.09;;;9.61;100.00
20003;BME280;10162;41.600;23.806;2023-03-01T18:44:54;95383.75;;;9.78;100.00
20003;BME280;10162;41.600;23.806;2023-03-01T18:47:22;95383.41;;;9.66;100.00
20003;BME280;10162;41.600;23.806;2023-03-01T18:53:19;95362.47;;;9.45;100.00
20003;BME280;10162;41.600;23.806;2023-03-01T18:55:46;95370.72;;;9.48;100.00
20003;BME280;10162;41.600;23.806;2023-03-01T18:58:12;95342.06;;;9.34;100.00
20003;BME280;10162;41.600;23.806;2023-03-01T19:00:41;95400.66;;;9.82;100.00
20003;BME280;10162;41.600;23.806;2023-03-01T19:03:06;95392.53;;;9.91;100.00
20003;BME280;10162;41.600;23.806;2023-03-01T19:05:32;95397.75;;;9.91;100.00
20003;BME280;10162;41.600;23.806;2023-03-01T19:07:58;95388.03;;;9.85;100.00
20003;BME280;10162;41.600;23.806;2023-03-01T19:14:18;95410.69;;;10.00;100.00
20003;BME280;10162;41.600;23.806;2023-03-01T19:16:44;95416.34;;;10.03;100.00
20003;BME280;10162;41.600;23.806;2023-03-01T19:19:15;95412.50;;;9.99;100.00
20003;BME280;10162;41.600;23.806;2023-03-01T19:21:42;95388.84;;;9.86;100.00
20003;BME280;10162;41.600;23.806;2023-03-01T19:24:07;95402.16;;;9.91;100.00
20003;BME280;10162;41.600;23.806;2023-03-01T19:26:34;95407.84;;;9.94;100.00
20003;BME280;10162;41.600;23.806;2023-03-01T19:29:15;95387.69;;;9.88;100.00
20003;BME280;10162;41.600;23.806;2023-03-01T19:31:41;95388.84;;;9.86;100.00
20003;BME280;10162;41.600;23.806;2023-03-01T19:34:07;95396.88;;;9.84;100.00
20003;BME280;10162;41.600;23.806;2023-03-01T19:36:34;95409.38;;;9.89;100.00
20003;BME280;10162;41.600;23.806;2023-03-01T19:39:03;95397.59;;;9.78;100.00
20003;BME280;10162;41.600;23.806;2023-03-01T19:41:30;95404.72;;;9.70;100.00
20003;BME280;10162;41.600;23.806;2023-03-01T19:43:56;95420.44;;;9.91;100.00
20003;BME280;10162;41.600;23.806;2023-03-01T19:46:23;95410.03;;;9.76;100.00
20003;BME280;10162;41.600;23.806;2023-03-01T19:49:09;95433.06;;;9.87;100.00
20003;BME280;10162;41.600;23.806;2023-03-01T19:51:35;95432.06;;;9.88;100.00
20003;BME280;10162;41.600;23.806;2023-03-01T19:54:04;95408.69;;;9.66;100.00
20003;BME280;10162;41.600;23.806;2023-03-01T19:56:30;95437.94;;;9.90;100.00
20003;BME280;10162;41.600;23.806;2023-03-01T19:59:15;95435.56;;;9.95;100.00
20003;BME280;10162;41.600;23.806;2023-03-01T20:01:45;95420.13;;;9.79;100.00
20003;BME280;10162;41.600;23.806;2023-03-01T20:04:11;95423.88;;;9.77;100.00
20003;BME280;10162;41.600;23.806;2023-03-01T20:06:37;95417.31;;;9.81;100.00
20003;BME280;10162;41.600;23.806;2023-03-01T20:09:06;95408.41;;;9.75;100.00
20003;BME280;10162;41.600;23.806;2023-03-01T20:11:33;95414.00;;;9.72;100.00
20003;BME280;10162;41.600;23.806;2023-03-01T20:13:59;95429.50;;;9.74;100.00
20003;BME280;10162;41.600;23.806;2023-03-01T20:16:27;95391.41;;;9.65;100.00
20003;BME280;10162;41.600;23.806;2023-03-01T20:18:55;95406.59;;;9.76;100.00
20003;BME280;10162;41.600;23.806;2023-03-01T20:21:22;95429.75;;;9.79;100.00
20003;BME280;10162;41.600;23.806;2023-03-01T20:23:47;95418.59;;;9.70;100.00
20003;BME280;10162;41.600;23.806;2023-03-01T20:26:14;95407.44;;;9.62;100.00
20003;BME280;10162;41.600;23.806;2023-03-01T20:29:20;95442.44;;;9.82;100.00
20003;BME280;10162;41.600;23.806;2023-03-01T20:31:48;95430.56;;;9.65;100.00
20003;BME280;10162;41.600;23.806;2023-03-01T20:34:14;95448.56;;;9.74;100.00
20003;BME280;10162;41.600;23.806;2023-03-01T20:36:41;95428.78;;;9.50;100.00
20003;BME280;10162;41.600;23.806;2023-03-01T20:42:15;95419.88;;;9.45;100.00
20003;BME280;10162;41.600;23.806;2023-03-01T20:44:41;95422.19;;;9.54;100.00
20003;BME280;10162;41.600;23.806;2023-03-01T20:47:10;95437.31;;;9.59;100.00
20003;BME280;10162;41.600;23.806;2023-03-01T20:52:46;95419.84;;;9.30;100.00
20003;BME280;10162;41.600;23.806;2023-03-01T20:55:12;95436.53;;;9.44;100.00
20003;BME280;10162;41.600;23.806;2023-03-01T20:57:39;95436.03;;;9.40;100.00
20003;BME280;10162;41.600;23.806;2023-03-01T21:00:43;95455.75;;;9.58;100.00
20003;BME280;10162;41.600;23.806;2023-03-01T21:03:10;95418.69;;;9.33;100.00
20003;BME280;10162;41.600;23.806;2023-03-01T21:05:36;95435.44;;;9.38;100.00
20003;BME280;10162;41.600;23.806;2023-03-01T21:08:02;95422.72;;;9.35;100.00
20003;BME280;10162;41.600;23.806;2023-03-01T21:10:32;95437.66;;;9.41;100.00
20003;BME280;10162;41.600;23.806;2023-03-01T21:13:00;95439.31;;;9.42;100.00
20003;BME280;10162;41.600;23.806;2023-03-01T21:15:25;95400.50;;;9.25;100.00
20003;BME280;10162;41.600;23.806;2023-03-01T21:17:52;95439.66;;;9.39;100.00
20003;BME280;10162;41.600;23.806;2023-03-01T21:24:12;95436.59;;;9.36;100.00
20003;BME280;10162;41.600;23.806;2023-03-01T21:26:39;95439.75;;;9.31;100.00